sensor_id;sensor_type;location;lat;lon;timestamp;temperature;humidity
32293;DHT22;43233;48.608;8.838;2023-05-10T00:00:41;12.90;99.90
32293;DHT22;43233;48.608;8.838;2023-05-10T00:03:07;12.80;99.90
32293;DHT22;43233;48.608;8.838;2023-05-10T00:05:33;12.80;99.90
32293;DHT22;43233;48.608;8.838;2023-05-10T00:07:58;12.70;99.90
32293;DHT22;43233;48.608;8.838;2023-05-10T00:10:24;12.70;99.90
32293;DHT22;43233;48.608;8.838;2023-05-10T00:12:49;12.60;99.90
32293;DHT22;43233;48.608;8.838;2023-05-10T00:15:15;12.60;99.90
32293;DHT22;43233;48.608;8.838;2023-05-10T00:17:41;12.60;99.90
32293;DHT22;43233;48.608;8.838;2023-05-10T00:20:07;12.60;99.90
32293;DHT22;43233;48.608;8.838;2023-05-10T00:22:32;12.50;99.90
32293;DHT22;43233;48.608;8.838;2023-05-10T00:24:59;12.50;99.90
32293;DHT22;43233;48.608;8.838;2023-05-10T00:27:24;12.40;99.60
32293;DHT22;43233;48.608;8.838;2023-05-10T00:29:50;12.40;99.80
32293;DHT22;43233;48.608;8.838;2023-05-10T00:32:17;12.40;99.90
32293;DHT22;43233;48.608;8.838;2023-05-10T00:34:42;12.40;99.90
32293;DHT22;43233;48.608;8.838;2023-05-10T00:37:08;12.30;99.30
32293;DHT22;43233;48.608;8.838;2023-05-10T00:39:33;12.20;99.40
32293;DHT22;43233;48.608;8.838;2023-05-10T00:41:59;12.20;99.90
32293;DHT22;43233;48.608;8.838;2023-05-10T00:44:25;12.20;99.90
32293;DHT22;43233;48.608;8.838;2023-05-10T00:46:51;12.20;99.90
32293;DHT22;43233;48.608;8.838;2023-05-10T00:49:17;12.30;99.90
32293;DHT22;43233;48.608;8.838;2023-05-10T00:51:43;12.30;99.90
32293;DHT22;43233;48.608;8.838;2023-05-10T00:54:12;12.30;99.30
32293;DHT22;43233;48.608;8.838;2023-05-10T00:56:39;12.20;99.60
32293;DHT22;43233;48.608;8.838;2023-05-10T00:59:05;12.20;99.80
32293;DHT22;43233;48.608;8.838;2023-05-10T01:01:32;12.10;99.90
32293;DHT22;43233;48.608;8.838;2023-05-10T01:03:58;12.20;99.70
32293;DHT22;43233;48.608;8.838;2023-05-10T01:06:24;12.10;98.90
32293;DHT22;43233;48.608;8.838;2023-05-10T01:08:49;12.10;99.40
32293;DHT22;43233;48.608;8.838;2023-05-10T01:11:15;12.10;99.70
32293;DHT22;43233;48.608;8.838;2023-05-10T01:13:42;12.10;99.90
32293;DHT22;43233;48.608;8.838;2023-05-10T01:16:08;12.00;99.00
32293;DHT22;43233;48.608;8.838;2023-05-10T01:18:39;12.00;99.80
32293;DHT22;43233;48.608;8.838;2023-05-10T01:29:14;11.90;99.80
32293;DHT22;43233;48.608;8.838;2023-05-10T01:32:16;11.90;99.90
32293;DHT22;43233;48.608;8.838;2023-05-10T01:35:15;11.90;99.70
32293;DHT22;43233;48.608;8.838;2023-05-10T01:37:50;11.80;99.90
32293;DHT22;43233;48.608;8.838;2023-05-10T01:40:32;11.90;99.30
32293;DHT22;43233;48.608;8.838;2023-05-10T01:43:05;11.80;99.40
32293;DHT22;43233;48.608;8.838;2023-05-10T01:48:21;11.90;99.00
32293;DHT22;43233;48.608;8.838;2023-05-10T01:50:48;11.90;98.10
32293;DHT22;43233;48.608;8.838;2023-05-10T01:53:18;11.90;98.60
32293;DHT22;43233;48.608;8.838;2023-05-10T01:55:48;11.90;98.10
32293;DHT22;43233;48.608;8.838;2023-05-10T01:58:19;11.90;98.50
32293;DHT22;43233;48.608;8.838;2023-05-10T02:00:46;11.80;98.60
32293;DHT22;43233;48.608;8.838;2023-05-10T02:03:14;11.80;99.00
32293;DHT22;43233;48.608;8.838;2023-05-10T02:05:41;11.80;98.20
32293;DHT22;43233;48.608;8.838;2023-05-10T02:08:10;11.80;98.70
32293;DHT22;43233;48.608;8.838;2023-05-10T02:10:37;11.80;98.50
32293;DHT22;43233;48.608;8.838;2023-05-10T02:13:05;11.90;98.10
32293;DHT22;43233;48.608;8.838;2023-05-10T02:15:33;11.90;97.60
32293;DHT22;43233;48.608;8.838;2023-05-10T02:18:00;11.90;97.80
32293;DHT22;43233;48.608;8.838;2023-05-10T02:20:27;11.80;97.40
32293;DHT22;43233;48.608;8.838;2023-05-10T02:22:55;11.80;98.40
32293;DHT22;43233;48.608;8.838;2023-05-10T02:25:22;11.80;97.70
32293;DHT22;43233;48.608;8.838;2023-05-10T02:27:49;11.90;97.80
32293;DHT22;43233;48.608;8.838;2023-05-10T02:30:16;12.00;96.10
32293;DHT22;43233;48.608;8.838;2023-05-10T02:32:42;12.00;96.60
32293;DHT22;43233;48.608;8.838;2023-05-10T02:35:08;12.00;96.10
32293;DHT22;43233;48.608;8.838;2023-05-10T02:37:36;12.00;96.40
32293;DHT22;43233;48.608;8.838;2023-05-10T02:40:03;12.10;96.40
32293;DHT22;43233;48.608;8.838;2023-05-10T02:42:32;12.20;95.80
32293;DHT22;43233;48.608;8.838;2023-05-10T02:45:03;12.20;95.60
32293;DHT22;43233;48.608;8.838;2023-05-10T02:47:30;12.20;95.20
32293;DHT22;43233;48.608;8.838;2023-05-10T02:49:56;12.20;95.10
32293;DHT22;43233;48.608;8.838;2023-05-10T02:52:27;12.20;95.70
32293;DHT22;43233;48.608;8.838;2023-05-10T02:54:55;12.20;95.50
32293;DHT22;43233;48.608;8.838;2023-05-10T02:57:27;12.30;95.30
32293;DHT22;43233;48.608;8.838;2023-05-10T02:59:54;12.40;95.00
32293;DHT22;43233;48.608;8.838;2023-05-10T03:02:20;12.30;94.90
32293;DHT22;43233;48.608;8.838;2023-05-10T03:04:46;12.30;95.20
32293;DHT22;43233;48.608;8.838;2023-05-10T03:07:12;12.30;95.30
32293;DHT22;43233;48.608;8.838;2023-05-10T03:09:38;12.30;95.30
32293;DHT22;43233;48.608;8.838;2023-05-10T03:14:51;12.20;95.40
32293;DHT22;43233;48.608;8.838;2023-05-10T03:20:04;12.20;95.80
32293;DHT22;43233;48.608;8.838;2023-05-10T03:22:55;12.10;95.70
32293;DHT22;43233;48.608;8.838;2023-05-10T03:25:21;12.20;95.60
32293;DHT22;43233;48.608;8.838;2023-05-10T03:27:48;12.10;96.10
32293;DHT22;43233;48.608;8.838;2023-05-10T03:30:15;12.10;96.00
32293;DHT22;43233;48.608;8.838;2023-05-10T03:32:41;12.00;96.70
32293;DHT22;43233;48.608;8.838;2023-05-10T03:35:11;11.90;97.50
32293;DHT22;43233;48.608;8.838;2023-05-10T03:37:37;11.80;98.40
32293;DHT22;43233;48.608;8.838;2023-05-10T03:40:03;11.70;99.50
32293;DHT22;43233;48.608;8.838;2023-05-10T03:42:29;11.70;99.20
32293;DHT22;43233;48.608;8.838;2023-05-10T03:44:55;11.80;99.20
32293;DHT22;43233;48.608;8.838;2023-05-10T03:47:20;11.80;99.50
32293;DHT22;43233;48.608;8.838;2023-05-10T03:49:46;11.90;99.40
32293;DHT22;43233;48.608;8.838;2023-05-10T03:52:12;12.00;98.40
32293;DHT22;43233;48.608;8.838;2023-05-10T03:54:37;12.10;97.60
32293;DHT22;43233;48.608;8.838;2023-05-10T03:57:03;12.10;97.00
32293;DHT22;43233;48.608;8.838;2023-05-10T03:59:29;12.10;96.80
32293;DHT22;43233;48.608;8.838;2023-05-10T04:01:55;12.10;96.50
32293;DHT22;43233;48.608;8.838;2023-05-10T04:04:21;12.10;96.30
32293;DHT22;43233;48.608;8.838;2023-05-10T04:06:47;12.10;96.50
32293;DHT22;43233;48.608;8.838;2023-05-10T04:09:13;12.10;96.40
32293;DHT22;43233;48.608;8.838;2023-05-10T04:11:39;12.10;96.40
32293;DHT22;43233;48.608;8.838;2023-05-10T04:14:05;12.10;96.80
32293;DHT22;43233;48.608;8.838;2023-05-10T04:16:30;12.10;96.80
32293;DHT22;43233;48.608;8.838;2023-05-10T04:18:56;12.10;97.10
32293;DHT22;43233;48.608;8.838;2023-05-10T04:21:22;12.10;96.80
32293;DHT22;43233;48.608;8.838;2023-05-10T04:23:48;12.10;96.80
32293;DHT22;43233;48.608;8.838;2023-05-10T04:26:14;12.10;96.60
32293;DHT22;43233;48.608;8.838;2023-05-10T04:28:40;12.20;96.40
32293;DHT22;43233;48.608;8.838;2023-05-10T04:31:07;12.20;95.70
32293;DHT22;43233;48.608;8.838;2023-05-10T04:33:34;12.20;95.20
32293;DHT22;43233;48.608;8.838;2023-05-10T04:35:59;12.10;95.20
32293;DHT22;43233;48.608;8.838;2023-05-10T04:38:26;12.10;95.40
32293;DHT22;43233;48.608;8.838;2023-05-10T04:40:52;12.00;95.70
32293;DHT22;43233;48.608;8.838;2023-05-10T04:43:18;12.00;96.10
32293;DHT22;43233;48.608;8.838;2023-05-10T04:45:44;12.00;96.00
32293;DHT22;43233;48.608;8.838;2023-05-10T04:48:10;11.90;96.20
32293;DHT22;43233;48.608;8.838;2023-05-10T04:50:35;11.90;96.90
32293;DHT22;43233;48.608;8.838;2023-05-10T04:53:01;11.90;96.90
32293;DHT22;43233;48.608;8.838;2023-05-10T04:55:27;11.90;97.40
32293;DHT22;43233;48.608;8.838;2023-05-10T04:57:53;11.90;97.40
32293;DHT22;43233;48.608;8.838;2023-05-10T05:00:20;11.90;97.80
32293;DHT22;43233;48.608;8.838;2023-05-10T05:02:46;12.00;98.40
32293;DHT22;43233;48.608;8.838;2023-05-10T05:05:12;12.00;98.10
32293;DHT22;43233;48.608;8.838;2023-05-10T05:07:38;12.10;97.50
32293;DHT22;43233;48.608;8.838;2023-05-10T05:10:08;12.00;97.50
32293;DHT22;43233;48.608;8.838;2023-05-10T05:12:34;12.00;97.50
32293;DHT22;43233;48.608;8.838;2023-05-10T05:15:00;12.00;97.70
32293;DHT22;43233;48.608;8.838;2023-05-10T05:17:26;12.00;97.80
32293;DHT22;43233;48.608;8.838;2023-05-10T05:19:51;11.90;98.10
32293;DHT22;43233;48.608;8.838;2023-05-10T05:22:17;12.00;97.60
32293;DHT22;43233;48.608;8.838;2023-05-10T05:24:44;12.10;97.70
32293;DHT22;43233;48.608;8.838;2023-05-10T05:27:10;12.10;96.50
32293;DHT22;43233;48.608;8.838;2023-05-10T05:29:36;12.10;96.70
32293;DHT22;43233;48.608;8.838;2023-05-10T05:32:01;12.10;96.90
32293;DHT22;43233;48.608;8.838;2023-05-10T05:34:27;12.20;96.10
32293;DHT22;43233;48.608;8.838;2023-05-10T05:36:53;12.20;96.50
32293;DHT22;43233;48.608;8.838;2023-05-10T05:39:19;12.10;96.80
32293;DHT22;43233;48.608;8.838;2023-05-10T05:41:45;12.10;97.10
32293;DHT22;43233;48.608;8.838;2023-05-10T05:44:11;12.10;97.30
32293;DHT22;43233;48.608;8.838;2023-05-10T05:46:37;12.10;97.10
32293;DHT22;43233;48.608;8.838;2023-05-10T05:49:02;12.10;96.60
32293;DHT22;43233;48.608;8.838;2023-05-10T05:51:28;12.20;96.80
32293;DHT22;43233;48.608;8.838;2023-05-10T05:53:54;12.20;96.80
32293;DHT22;43233;48.608;8.838;2023-05-10T05:56:20;12.10;96.80
32293;DHT22;43233;48.608;8.838;2023-05-10T05:58:50;12.10;97.20
32293;DHT22;43233;48.608;8.838;2023-05-10T06:01:16;12.10;97.30
32293;DHT22;43233;48.608;8.838;2023-05-10T06:03:42;12.10;96.90
32293;DHT22;43233;48.608;8.838;2023-05-10T06:06:07;12.20;97.30
32293;DHT22;43233;48.608;8.838;2023-05-10T06:08:33;12.20;96.50
32293;DHT22;43233;48.608;8.838;2023-05-10T06:11:00;12.20;96.90
32293;DHT22;43233;48.608;8.838;2023-05-10T06:13:25;12.20;96.80
32293;DHT22;43233;48.608;8.838;2023-05-10T06:16:00;12.10;96.80
32293;DHT22;43233;48.608;8.838;2023-05-10T06:18:26;12.20;97.30
32293;DHT22;43233;48.608;8.838;2023-05-10T06:20:52;12.20;97.40
32293;DHT22;43233;48.608;8.838;2023-05-10T06:23:18;12.20;97.50
32293;DHT22;43233;48.608;8.838;2023-05-10T06:25:44;12.20;96.90
32293;DHT22;43233;48.608;8.838;2023-05-10T06:28:10;12.30;97.40
32293;DHT22;43233;48.608;8.838;2023-05-10T06:30:36;12.30;97.60
32293;DHT22;43233;48.608;8.838;2023-05-10T06:33:02;12.30;97.90
32293;DHT22;43233;48.608;8.838;2023-05-10T06:35:29;12.30;95.00
32293;DHT22;43233;48.608;8.838;2023-05-10T06:37:54;12.40;95.70
32293;DHT22;43233;48.608;8.838;2023-05-10T06:40:20;12.30;95.60
32293;DHT22;43233;48.608;8.838;2023-05-10T06:42:47;12.30;95.10
32293;DHT22;43233;48.608;8.838;2023-05-10T06:45:13;12.30;95.40
32293;DHT22;43233;48.608;8.838;2023-05-10T06:47:40;12.30;95.40
32293;DHT22;43233;48.608;8.838;2023-05-10T06:50:09;12.30;94.60
32293;DHT22;43233;48.608;8.838;2023-05-10T06:52:37;12.30;94.40
32293;DHT22;43233;48.608;8.838;2023-05-10T06:55:04;12.30;94.00
32293;DHT22;43233;48.608;8.838;2023-05-10T06:57:30;12.30;93.30
32293;DHT22;43233;48.608;8.838;2023-05-10T06:59:55;12.20;92.90
32293;DHT22;43233;48.608;8.838;2023-05-10T07:02:22;12.30;95.00
32293;DHT22;43233;48.608;8.838;2023-05-10T07:04:48;12.30;94.10
32293;DHT22;43233;48.608;8.838;2023-05-10T07:07:14;12.30;91.50
32293;DHT22;43233;48.608;8.838;2023-05-10T07:09:40;12.30;93.30
32293;DHT22;43233;48.608;8.838;2023-05-10T07:12:06;12.40;92.70
32293;DHT22;43233;48.608;8.838;2023-05-10T07:14:31;12.30;92.30
32293;DHT22;43233;48.608;8.838;2023-05-10T07:16:57;12.40;92.50
32293;DHT22;43233;48.608;8.838;2023-05-10T07:19:22;12.40;92.70
32293;DHT22;43233;48.608;8.838;2023-05-10T07:21:48;12.40;92.40
32293;DHT22;43233;48.608;8.838;2023-05-10T07:24:14;12.30;91.80
32293;DHT22;43233;48.608;8.838;2023-05-10T07:26:39;12.30;92.30
32293;DHT22;43233;48.608;8.838;2023-05-10T07:29:05;12.30;94.40
32293;DHT22;43233;48.608;8.838;2023-05-10T07:31:31;12.40;93.60
32293;DHT22;43233;48.608;8.838;2023-05-10T07:33:56;12.30;93.50
32293;DHT22;43233;48.608;8.838;2023-05-10T07:36:22;12.40;94.40
32293;DHT22;43233;48.608;8.838;2023-05-10T07:38:48;12.40;91.90
32293;DHT22;43233;48.608;8.838;2023-05-10T07:41:15;12.40;90.80
32293;DHT22;43233;48.608;8.838;2023-05-10T07:43:40;12.50;90.80
32293;DHT22;43233;48.608;8.838;2023-05-10T07:46:06;12.50;90.80
32293;DHT22;43233;48.608;8.838;2023-05-10T07:48:32;12.40;88.90
32293;DHT22;43233;48.608;8.838;2023-05-10T07:50:57;12.50;88.50
32293;DHT22;43233;48.608;8.838;2023-05-10T07:53:26;12.50;89.40
32293;DHT22;43233;48.608;8.838;2023-05-10T07:55:55;12.60;89.90
32293;DHT22;43233;48.608;8.838;2023-05-10T07:58:22;12.60;87.20
32293;DHT22;43233;48.608;8.838;2023-05-10T08:00:47;12.70;88.10
32293;DHT22;43233;48.608;8.838;2023-05-10T08:03:14;12.70;86.80
32293;DHT22;43233;48.608;8.838;2023-05-10T08:05:40;12.80;86.70
32293;DHT22;43233;48.608;8.838;2023-05-10T08:08:06;12.80;81.50
32293;DHT22;43233;48.608;8.838;2023-05-10T08:10:32;12.80;83.70
32293;DHT22;43233;48.608;8.838;2023-05-10T08:12:58;12.80;85.50
32293;DHT22;43233;48.608;8.838;2023-05-10T08:15:26;12.90;88.60
32293;DHT22;43233;48.608;8.838;2023-05-10T08:17:52;13.00;83.60
32293;DHT22;43233;48.608;8.838;2023-05-10T08:20:18;13.00;86.10
32293;DHT22;43233;48.608;8.838;2023-05-10T08:22:45;13.10;84.60
32293;DHT22;43233;48.608;8.838;2023-05-10T08:25:11;13.20;86.00
32293;DHT22;43233;48.608;8.838;2023-05-10T08:27:37;13.30;83.50
32293;DHT22;43233;48.608;8.838;2023-05-10T08:30:03;13.20;79.80
32293;DHT22;43233;48.608;8.838;2023-05-10T08:32:29;13.20;81.60
32293;DHT22;43233;48.608;8.838;2023-05-10T08:34:55;13.20;81.30
32293;DHT22;43233;48.608;8.838;2023-05-10T08:37:22;13.30;78.90
32293;DHT22;43233;48.608;8.838;2023-05-10T08:39:51;13.30;80.70
32293;DHT22;43233;48.608;8.838;2023-05-10T08:42:19;13.30;78.40
32293;DHT22;43233;48.608;8.838;2023-05-10T08:44:48;13.30;78.70
32293;DHT22;43233;48.608;8.838;2023-05-10T08:47:18;13.40;80.90
32293;DHT22;43233;48.608;8.838;2023-05-10T08:49:47;13.40;77.50
32293;DHT22;43233;48.608;8.838;2023-05-10T08:52:16;13.40;79.80
32293;DHT22;43233;48.608;8.838;2023-05-10T08:54:42;13.50;78.60
32293;DHT22;43233;48.608;8.838;2023-05-10T08:57:10;13.50;78.70
32293;DHT22;43233;48.608;8.838;2023-05-10T08:59:36;13.60;78.10
32293;DHT22;43233;48.608;8.838;2023-05-10T09:02:05;13.50;77.10
32293;DHT22;43233;48.608;8.838;2023-05-10T09:04:31;13.50;77.10
32293;DHT22;43233;48.608;8.838;2023-05-10T09:06:57;13.60;77.80
32293;DHT22;43233;48.608;8.838;2023-05-10T09:09:23;13.60;75.40
32293;DHT22;43233;48.608;8.838;2023-05-10T09:11:54;13.60;78.20
32293;DHT22;43233;48.608;8.838;2023-05-10T09:14:19;13.70;72.60
32293;DHT22;43233;48.608;8.838;2023-05-10T09:16:46;13.70;74.30
32293;DHT22;43233;48.608;8.838;2023-05-10T09:19:12;13.80;74.20
32293;DHT22;43233;48.608;8.838;2023-05-10T09:21:38;14.00;75.80
32293;DHT22;43233;48.608;8.838;2023-05-10T09:24:07;14.10;76.50
32293;DHT22;43233;48.608;8.838;2023-05-10T09:26:34;14.30;74.30
32293;DHT22;43233;48.608;8.838;2023-05-10T09:29:04;14.30;71.80
32293;DHT22;43233;48.608;8.838;2023-05-10T09:31:51;14.30;69.00
32293;DHT22;43233;48.608;8.838;2023-05-10T09:34:28;14.30;71.10
32293;DHT22;43233;48.608;8.838;2023-05-10T09:36:56;14.40;71.00
32293;DHT22;43233;48.608;8.838;2023-05-10T09:39:33;14.50;70.40
32293;DHT22;43233;48.608;8.838;2023-05-10T09:42:04;14.60;69.00
32293;DHT22;43233;48.608;8.838;2023-05-10T09:44:31;14.60;65.70
32293;DHT22;43233;48.608;8.838;2023-05-10T09:46:58;14.70;68.80
32293;DHT22;43233;48.608;8.838;2023-05-10T09:49:24;14.70;66.30
32293;DHT22;43233;48.608;8.838;2023-05-10T09:52:06;14.60;66.50
32293;DHT22;43233;48.608;8.838;2023-05-10T09:54:33;14.50;68.30
32293;DHT22;43233;48.608;8.838;2023-05-10T09:56:59;14.40;65.30
32293;DHT22;43233;48.608;8.838;2023-05-10T09:59:28;14.30;68.10
32293;DHT22;43233;48.608;8.838;2023-05-10T10:01:59;14.30;66.20
32293;DHT22;43233;48.608;8.838;2023-05-10T10:04:25;14.20;68.40
32293;DHT22;43233;48.608;8.838;2023-05-10T10:07:03;14.30;68.40
32293;DHT22;43233;48.608;8.838;2023-05-10T10:09:30;14.30;66.20
32293;DHT22;43233;48.608;8.838;2023-05-10T10:11:56;14.40;67.10
32293;DHT22;43233;48.608;8.838;2023-05-10T10:14:23;14.40;67.10
32293;DHT22;43233;48.608;8.838;2023-05-10T10:16:52;14.40;67.00
32293;DHT22;43233;48.608;8.838;2023-05-10T10:19:21;14.20;66.50
32293;DHT22;43233;48.608;8.838;2023-05-10T10:21:50;14.10;67.70
32293;DHT22;43233;48.608;8.838;2023-05-10T10:24:16;13.90;69.50
32293;DHT22;43233;48.608;8.838;2023-05-10T10:26:43;13.50;74.10
32293;DHT22;43233;48.608;8.838;2023-05-10T10:29:26;13.10;77.70
32293;DHT22;43233;48.608;8.838;2023-05-10T10:34:52;12.40;80.40
32293;DHT22;43233;48.608;8.838;2023-05-10T10:37:19;12.30;82.50
32293;DHT22;43233;48.608;8.838;2023-05-10T10:39:48;12.20;84.10
32293;DHT22;43233;48.608;8.838;2023-05-10T10:42:14;12.20;84.00
32293;DHT22;43233;48.608;8.838;2023-05-10T10:44:39;12.20;85.10
32293;DHT22;43233;48.608;8.838;2023-05-10T10:49:52;12.10;81.20
32293;DHT22;43233;48.608;8.838;2023-05-10T11:00:22;12.30;77.40
32293;DHT22;43233;48.608;8.838;2023-05-10T11:02:51;12.40;76.40
32293;DHT22;43233;48.608;8.838;2023-05-10T11:08:11;12.60;75.70
32293;DHT22;43233;48.608;8.838;2023-05-10T11:10:38;12.70;75.00
32293;DHT22;43233;48.608;8.838;2023-05-10T11:13:08;12.70;71.60
32293;DHT22;43233;48.608;8.838;2023-05-10T11:15:36;12.80;73.20
32293;DHT22;43233;48.608;8.838;2023-05-10T11:18:23;12.70;68.50
32293;DHT22;43233;48.608;8.838;2023-05-10T11:20:55;12.80;74.20
32293;DHT22;43233;48.608;8.838;2023-05-10T11:23:21;13.00;72.00
32293;DHT22;43233;48.608;8.838;2023-05-10T11:25:49;13.10;73.20
32293;DHT22;43233;48.608;8.838;2023-05-10T11:28:17;13.30;67.60
32293;DHT22;43233;48.608;8.838;2023-05-10T11:30:44;13.40;68.40
32293;DHT22;43233;48.608;8.838;2023-05-10T11:33:15;13.50;65.50
32293;DHT22;43233;48.608;8.838;2023-05-10T11:35:41;13.60;66.40
32293;DHT22;43233;48.608;8.838;2023-05-10T11:38:08;13.60;66.60
32293;DHT22;43233;48.608;8.838;2023-05-10T11:40:37;13.80;65.60
32293;DHT22;43233;48.608;8.838;2023-05-10T11:43:05;13.70;67.70
32293;DHT22;43233;48.608;8.838;2023-05-10T11:45:35;13.70;68.50
32293;DHT22;43233;48.608;8.838;2023-05-10T11:48:01;13.60;62.60
32293;DHT22;43233;48.608;8.838;2023-05-10T11:50:28;13.50;63.50
32293;DHT22;43233;48.608;8.838;2023-05-10T11:52:57;13.40;64.70
32293;DHT22;43233;48.608;8.838;2023-05-10T11:55:24;13.40;63.50
32293;DHT22;43233;48.608;8.838;2023-05-10T11:58:00;13.30;62.10
32293;DHT22;43233;48.608;8.838;2023-05-10T12:00:26;13.30;62.00
32293;DHT22;43233;48.608;8.838;2023-05-10T12:02:52;13.30;64.10
32293;DHT22;43233;48.608;8.838;2023-05-10T12:05:18;13.40;64.30
32293;DHT22;43233;48.608;8.838;2023-05-10T12:07:43;13.30;64.80
32293;DHT22;43233;48.608;8.838;2023-05-10T12:10:11;13.20;64.70
32293;DHT22;43233;48.608;8.838;2023-05-10T12:12:46;13.30;64.70
32293;DHT22;43233;48.608;8.838;2023-05-10T12:15:18;13.30;61.40
32293;DHT22;43233;48.608;8.838;2023-05-10T12:17:45;13.20;61.40
32293;DHT22;43233;48.608;8.838;2023-05-10T12:22:55;13.30;62.40
32293;DHT22;43233;48.608;8.838;2023-05-10T12:25:23;13.40;62.80
32293;DHT22;43233;48.608;8.838;2023-05-10T12:27:54;13.40;63.20
32293;DHT22;43233;48.608;8.838;2023-05-10T12:30:22;13.50;64.80
32293;DHT22;43233;48.608;8.838;2023-05-10T12:32:48;13.40;61.20
32293;DHT22;43233;48.608;8.838;2023-05-10T12:35:13;13.40;60.90
32293;DHT22;43233;48.608;8.838;2023-05-10T12:37:39;13.40;63.80
32293;DHT22;43233;48.608;8.838;2023-05-10T12:40:06;13.40;61.70
32293;DHT22;43233;48.608;8.838;2023-05-10T12:42:34;13.40;61.00
32293;DHT22;43233;48.608;8.838;2023-05-10T12:45:01;13.40;63.10
32293;DHT22;43233;48.608;8.838;2023-05-10T12:47:28;13.40;63.10
32293;DHT22;43233;48.608;8.838;2023-05-10T12:49:53;13.40;62.90
32293;DHT22;43233;48.608;8.838;2023-05-10T12:52:19;13.50;61.20
32293;DHT22;43233;48.608;8.838;2023-05-10T12:54:45;13.50;60.50
32293;DHT22;43233;48.608;8.838;2023-05-10T12:57:11;13.60;62.40
32293;DHT22;43233;48.608;8.838;2023-05-10T12:59:37;13.70;61.80
32293;DHT22;43233;48.608;8.838;2023-05-10T13:02:02;13.70;59.20
32293;DHT22;43233;48.608;8.838;2023-05-10T13:04:28;13.70;59.20
32293;DHT22;43233;48.608;8.838;2023-05-10T13:06:54;13.60;59.20
32293;DHT22;43233;48.608;8.838;2023-05-10T13:09:24;13.60;61.10
32293;DHT22;43233;48.608;8.838;2023-05-10T13:11:50;13.70;61.80
32293;DHT22;43233;48.608;8.838;2023-05-10T13:14:16;13.80;62.40
32293;DHT22;43233;48.608;8.838;2023-05-10T13:16:42;13.90;62.50
32293;DHT22;43233;48.608;8.838;2023-05-10T13:19:07;14.00;62.20
32293;DHT22;43233;48.608;8.838;2023-05-10T13:21:33;14.00;61.80
32293;DHT22;43233;48.608;8.838;2023-05-10T13:23:59;13.90;58.20
32293;DHT22;43233;48.608;8.838;2023-05-10T13:26:25;13.90;60.30
32293;DHT22;43233;48.608;8.838;2023-05-10T13:28:51;14.00;60.10
32293;DHT22;43233;48.608;8.838;2023-05-10T13:31:17;14.10;58.30
32293;DHT22;43233;48.608;8.838;2023-05-10T13:33:42;14.20;59.00
32293;DHT22;43233;48.608;8.838;2023-05-10T13:36:08;14.20;58.20
32293;DHT22;43233;48.608;8.838;2023-05-10T13:38:34;14.40;60.00
32293;DHT22;43233;48.608;8.838;2023-05-10T13:41:00;14.50;61.20
32293;DHT22;43233;48.608;8.838;2023-05-10T13:43:25;14.60;57.10
32293;DHT22;43233;48.608;8.838;2023-05-10T13:45:51;14.70;59.80
32293;DHT22;43233;48.608;8.838;2023-05-10T13:48:17;14.70;55.20
32293;DHT22;43233;48.608;8.838;2023-05-10T13:50:43;14.70;56.20
32293;DHT22;43233;48.608;8.838;2023-05-10T13:53:09;14.80;56.50
32293;DHT22;43233;48.608;8.838;2023-05-10T13:55:34;14.60;55.20
32293;DHT22;43233;48.608;8.838;2023-05-10T13:58:00;14.70;56.10
32293;DHT22;43233;48.608;8.838;2023-05-10T14:00:26;14.70;56.30
32293;DHT22;43233;48.608;8.838;2023-05-10T14:02:52;14.70;55.00
32293;DHT22;43233;48.608;8.838;2023-05-10T14:05:17;14.60;53.40
32293;DHT22;43233;48.608;8.838;2023-05-10T14:07:43;14.60;54.70
32293;DHT22;43233;48.608;8.838;2023-05-10T14:10:09;14.60;53.00
32293;DHT22;43233;48.608;8.838;2023-05-10T14:12:35;14.50;52.40
32293;DHT22;43233;48.608;8.838;2023-05-10T14:15:00;14.50;51.60
32293;DHT22;43233;48.608;8.838;2023-05-10T14:17:26;14.50;52.10
32293;DHT22;43233;48.608;8.838;2023-05-10T14:19:52;14.50;51.10
32293;DHT22;43233;48.608;8.838;2023-05-10T14:22:18;14.50;53.30
32293;DHT22;43233;48.608;8.838;2023-05-10T14:24:44;14.40;53.60
32293;DHT22;43233;48.608;8.838;2023-05-10T14:27:12;14.40;52.20
32293;DHT22;43233;48.608;8.838;2023-05-10T14:29:38;14.50;52.30
32293;DHT22;43233;48.608;8.838;2023-05-10T14:32:03;14.50;53.50
32293;DHT22;43233;48.608;8.838;2023-05-10T14:34:29;14.60;53.90
32293;DHT22;43233;48.608;8.838;2023-05-10T14:36:55;14.60;53.40
32293;DHT22;43233;48.608;8.838;2023-05-10T14:39:21;14.60;54.60
32293;DHT22;43233;48.608;8.838;2023-05-10T14:41:48;14.60;55.60
32293;DHT22;43233;48.608;8.838;2023-05-10T14:44:13;14.70;56.20
32293;DHT22;43233;48.608;8.838;2023-05-10T14:46:40;14.80;57.30
32293;DHT22;43233;48.608;8.838;2023-05-10T14:49:07;14.80;54.60
32293;DHT22;43233;48.608;8.838;2023-05-10T14:51:32;14.80;50.70
32293;DHT22;43233;48.608;8.838;2023-05-10T14:53:58;14.90;54.00
32293;DHT22;43233;48.608;8.838;2023-05-10T14:56:24;14.90;50.30
32293;DHT22;43233;48.608;8.838;2023-05-10T14:58:51;14.80;51.00
32293;DHT22;43233;48.608;8.838;2023-05-10T15:01:16;14.80;52.40
32293;DHT22;43233;48.608;8.838;2023-05-10T15:03:42;14.80;52.40
32293;DHT22;43233;48.608;8.838;2023-05-10T15:06:08;14.80;53.80
32293;DHT22;43233;48.608;8.838;2023-05-10T15:08:34;14.80;53.10
32293;DHT22;43233;48.608;8.838;2023-05-10T15:10:59;14.70;53.40
32293;DHT22;43233;48.608;8.838;2023-05-10T15:13:27;14.80;54.20
32293;DHT22;43233;48.608;8.838;2023-05-10T15:15:53;14.80;51.40
32293;DHT22;43233;48.608;8.838;2023-05-10T15:18:19;14.80;51.90
32293;DHT22;43233;48.608;8.838;2023-05-10T15:20:44;14.80;52.90
32293;DHT22;43233;48.608;8.838;2023-05-10T15:23:10;14.90;53.40
32293;DHT22;43233;48.608;8.838;2023-05-10T15:25:36;14.80;51.80
32293;DHT22;43233;48.608;8.838;2023-05-10T15:28:03;14.80;52.00
32293;DHT22;43233;48.608;8.838;2023-05-10T15:30:29;14.90;52.60
32293;DHT22;43233;48.608;8.838;2023-05-10T15:32:55;14.90;54.10
32293;DHT22;43233;48.608;8.838;2023-05-10T15:35:21;14.90;52.30
32293;DHT22;43233;48.608;8.838;2023-05-10T15:37:47;14.90;52.40
32293;DHT22;43233;48.608;8.838;2023-05-10T15:40:14;14.90;53.40
32293;DHT22;43233;48.608;8.838;2023-05-10T15:42:40;14.90;52.50
32293;DHT22;43233;48.608;8.838;2023-05-10T15:45:06;14.90;51.10
32293;DHT22;43233;48.608;8.838;2023-05-10T15:47:32;14.90;52.70
32293;DHT22;43233;48.608;8.838;2023-05-10T15:49:58;15.00;50.00
32293;DHT22;43233;48.608;8.838;2023-05-10T15:52:24;14.90;49.60
32293;DHT22;43233;48.608;8.838;2023-05-10T15:54:50;14.90;50.10
32293;DHT22;43233;48.608;8.838;2023-05-10T15:57:16;14.90;49.90
32293;DHT22;43233;48.608;8.838;2023-05-10T15:59:41;14.80;49.40
32293;DHT22;43233;48.608;8.838;2023-05-10T16:02:08;14.70;48.50
32293;DHT22;43233;48.608;8.838;2023-05-10T16:04:35;14.60;51.60